sensor_id;sensor_type;location;lat;lon;timestamp;P1;durP1;ratioP1;P2;durP2;ratioP2
43706;SDS011;61348;53.392;-6.248;2023-06-04T00:02:11;7.88;;;4.47;;
43706;SDS011;61348;53.392;-6.248;2023-06-04T00:04:37;7.28;;;4.93;;
43706;SDS011;61348;53.392;-6.248;2023-06-04T00:07:04;10.10;;;5.05;;
43706;SDS011;61348;53.392;-6.248;2023-06-04T00:09:31;12.88;;;6.10;;
43706;SDS011;61348;53.392;-6.248;2023-06-04T00:11:58;7.30;;;5.35;;
43706;SDS011;61348;53.392;-6.248;2023-06-04T00:14:25;11.82;;;6.43;;
43706;SDS011;61348;53.392;-6.248;2023-06-04T00:16:51;9.48;;;4.50;;
43706;SDS011;61348;53.392;-6.248;2023-06-04T00:19:18;10.30;;;5.10;;
43706;SDS011;61348;53.392;-6.248;2023-06-04T00:21:45;12.90;;;5.70;;
43706;SDS011;61348;53.392;-6.248;2023-06-04T00:24:12;10.35;;;5.57;;
43706;SDS011;61348;53.392;-6.248;2023-06-04T00:26:39;9.93;;;4.60;;
43706;SDS011;61348;53.392;-6.248;2023-06-04T00:29:06;11.52;;;5.43;;
43706;SDS011;61348;53.392;-6.248;2023-06-04T00:31:33;11.38;;;4.90;;
43706;SDS011;61348;53.392;-6.248;2023-06-04T00:34:00;9.05;;;5.03;;
43706;SDS011;61348;53.392;-6.248;2023-06-04T00:36:27;9.90;;;4.97;;
43706;SDS011;61348;53.392;-6.248;2023-06-04T00:38:54;8.63;;;5.45;;
43706;SDS011;61348;53.392;-6.248;2023-06-04T00:41:21;8.98;;;5.40;;
43706;SDS011;61348;53.392;-6.248;2023-06-04T00:43:48;11.63;;;5.15;;
43706;SDS011;61348;53.392;-6.248;2023-06-04T00:46:23;9.10;;;4.63;;
43706;SDS011;61348;53.392;-6.248;2023-06-04T00:51:21;9.90;;;3.85;;
43706;SDS011;61348;53.392;-6.248;2023-06-04T00:53:49;7.10;;;4.13;;
43706;SDS011;61348;53.392;-6.248;2023-06-04T00:56:16;6.35;;;4.53;;
43706;SDS011;61348;53.392;-6.248;2023-06-04T00:58:44;10.52;;;5.20;;
43706;SDS011;61348;53.392;-6.248;2023-06-04T01:01:16;7.32;;;4.30;;
43706;SDS011;61348;53.392;-6.248;2023-06-04T01:03:49;7.43;;;4.43;;
43706;SDS011;61348;53.392;-6.248;2023-06-04T01:06:38;8.98;;;5.18;;
43706;SDS011;61348;53.392;-6.248;2023-06-04T01:09:09;10.40;;;4.82;;
43706;SDS011;61348;53.392;-6.248;2023-06-04T01:11:37;9.18;;;4.72;;
43706;SDS011;61348;53.392;-6.248;2023-06-04T01:14:06;11.60;;;4.43;;
43706;SDS011;61348;53.392;-6.248;2023-06-04T01:16:39;9.10;;;5.40;;
43706;SDS011;61348;53.392;-6.248;2023-06-04T01:19:27;12.13;;;5.03;;
43706;SDS011;61348;53.392;-6.248;2023-06-04T01:25:54;8.88;;;3.78;;
43706;SDS011;61348;53.392;-6.248;2023-06-04T01:27:58;8.23;;;4.28;;
43706;SDS011;61348;53.392;-6.248;2023-06-04T01:30:30;9.75;;;4.70;;
43706;SDS011;61348;53.392;-6.248;2023-06-04T01:33:01;6.10;;;3.70;;
43706;SDS011;61348;53.392;-6.248;2023-06-04T01:35:29;9.25;;;5.80;;
43706;SDS011;61348;53.392;-6.248;2023-06-04T01:37:59;6.60;;;3.90;;
43706;SDS011;61348;53.392;-6.248;2023-06-04T01:40:26;7.05;;;3.97;;
43706;SDS011;61348;53.392;-6.248;2023-06-04T01:42:53;5.60;;;3.45;;
43706;SDS011;61348;53.392;-6.248;2023-06-04T01:45:24;8.73;;;4.22;;
43706;SDS011;61348;53.392;-6.248;2023-06-04T01:47:52;6.78;;;3.42;;
43706;SDS011;61348;53.392;-6.248;2023-06-04T01:50:21;6.82;;;4.05;;
43706;SDS011;61348;53.392;-6.248;2023-06-04T01:52:48;7.93;;;3.75;;
43706;SDS011;61348;53.392;-6.248;2023-06-04T01:55:16;7.72;;;4.00;;
43706;SDS011;61348;53.392;-6.248;2023-06-04T01:57:44;7.07;;;4.05;;
43706;SDS011;61348;53.392;-6.248;2023-06-04T02:00:12;5.05;;;3.45;;
43706;SDS011;61348;53.392;-6.248;2023-06-04T02:02:40;7.90;;;4.32;;
43706;SDS011;61348;53.392;-6.248;2023-06-04T02:05:09;6.43;;;3.80;;
43706;SDS011;61348;53.392;-6.248;2023-06-04T02:07:40;9.48;;;5.50;;
43706;SDS011;61348;53.392;-6.248;2023-06-04T02:10:09;7.22;;;3.85;;
43706;SDS011;61348;53.392;-6.248;2023-06-04T02:12:40;8.80;;;4.45;;
43706;SDS011;61348;53.392;-6.248;2023-06-04T02:15:18;8.85;;;3.95;;
43706;SDS011;61348;53.392;-6.248;2023-06-04T02:17:47;11.23;;;5.40;;
43706;SDS011;61348;53.392;-6.248;2023-06-04T02:20:17;12.68;;;4.03;;
43706;SDS011;61348;53.392;-6.248;2023-06-04T02:22:43;11.25;;;4.28;;
43706;SDS011;61348;53.392;-6.248;2023-06-04T02:25:10;9.77;;;3.75;;
43706;SDS011;61348;53.392;-6.248;2023-06-04T02:27:37;11.32;;;4.63;;
43706;SDS011;61348;53.392;-6.248;2023-06-04T02:30:04;6.68;;;4.18;;
43706;SDS011;61348;53.392;-6.248;2023-06-04T02:32:32;9.07;;;4.30;;
43706;SDS011;61348;53.392;-6.248;2023-06-04T02:35:00;7.45;;;4.50;;
43706;SDS011;61348;53.392;-6.248;2023-06-04T02:37:26;7.40;;;4.22;;
43706;SDS011;61348;53.392;-6.248;2023-06-04T02:39:53;14.40;;;7.03;;
43706;SDS011;61348;53.392;-6.248;2023-06-04T02:42:20;10.38;;;5.47;;
43706;SDS011;61348;53.392;-6.248;2023-06-04T02:44:47;8.77;;;4.15;;
43706;SDS011;61348;53.392;-6.248;2023-06-04T02:47:14;12.38;;;4.72;;
43706;SDS011;61348;53.392;-6.248;2023-06-04T02:49:41;10.63;;;5.13;;
43706;SDS011;61348;53.392;-6.248;2023-06-04T02:52:08;5.18;;;4.07;;
43706;SDS011;61348;53.392;-6.248;2023-06-04T02:54:35;10.30;;;5.10;;
43706;SDS011;61348;53.392;-6.248;2023-06-04T02:57:01;8.30;;;5.07;;
43706;SDS011;61348;53.392;-6.248;2023-06-04T02:59:28;8.57;;;4.47;;
43706;SDS011;61348;53.392;-6.248;2023-06-04T03:01:55;10.50;;;4.50;;
43706;SDS011;61348;53.392;-6.248;2023-06-04T03:04:22;11.23;;;5.28;;
43706;SDS011;61348;53.392;-6.248;2023-06-04T03:06:49;7.15;;;4.22;;
43706;SDS011;61348;53.392;-6.248;2023-06-04T03:09:24;12.00;;;4.80;;
43706;SDS011;61348;53.392;-6.248;2023-06-04T03:11:51;10.52;;;5.18;;
43706;SDS011;61348;53.392;-6.248;2023-06-04T03:14:20;8.93;;;4.45;;
43706;SDS011;61348;53.392;-6.248;2023-06-04T03:16:48;8.65;;;4.40;;
43706;SDS011;61348;53.392;-6.248;2023-06-04T03:19:15;14.98;;;5.45;;
43706;SDS011;61348;53.392;-6.248;2023-06-04T03:21:43;9.70;;;4.30;;
43706;SDS011;61348;53.392;-6.248;2023-06-04T03:24:11;8.60;;;4.07;;
43706;SDS011;61348;53.392;-6.248;2023-06-04T03:26:38;11.75;;;5.03;;
43706;SDS011;61348;53.392;-6.248;2023-06-04T03:29:04;10.07;;;5.07;;
43706;SDS011;61348;53.392;-6.248;2023-06-04T03:31:32;7.10;;;3.92;;
43706;SDS011;61348;53.392;-6.248;2023-06-04T03:33:59;7.90;;;5.05;;
43706;SDS011;61348;53.392;-6.248;2023-06-04T03:36:26;7.05;;;4.85;;
43706;SDS011;61348;53.392;-6.248;2023-06-04T03:38:58;16.17;;;4.47;;
43706;SDS011;61348;53.392;-6.248;2023-06-04T03:41:25;11.07;;;4.43;;
43706;SDS011;61348;53.392;-6.248;2023-06-04T03:43:52;11.90;;;5.00;;
43706;SDS011;61348;53.392;-6.248;2023-06-04T03:46:19;8.75;;;3.90;;
43706;SDS011;61348;53.392;-6.248;2023-06-04T03:48:45;11.10;;;4.82;;
43706;SDS011;61348;53.392;-6.248;2023-06-04T03:51:12;4.78;;;3.70;;
43706;SDS011;61348;53.392;-6.248;2023-06-04T03:53:39;8.38;;;4.40;;
43706;SDS011;61348;53.392;-6.248;2023-06-04T03:56:06;8.27;;;3.78;;
43706;SDS011;61348;53.392;-6.248;2023-06-04T03:58:34;7.40;;;4.40;;
43706;SDS011;61348;53.392;-6.248;2023-06-04T04:01:01;5.88;;;3.85;;
43706;SDS011;61348;53.392;-6.248;2023-06-04T04:03:31;12.45;;;4.80;;
43706;SDS011;61348;53.392;-6.248;2023-06-04T04:05:58;7.07;;;3.80;;
43706;SDS011;61348;53.392;-6.248;2023-06-04T04:08:24;9.25;;;3.97;;
43706;SDS011;61348;53.392;-6.248;2023-06-04T04:10:52;12.80;;;4.15;;
43706;SDS011;61348;53.392;-6.248;2023-06-04T04:13:19;9.65;;;4.25;;
43706;SDS011;61348;53.392;-6.248;2023-06-04T04:15:45;10.95;;;3.80;;
43706;SDS011;61348;53.392;-6.248;2023-06-04T04:18:12;10.82;;;5.45;;
43706;SDS011;61348;53.392;-6.248;2023-06-04T04:20:39;6.72;;;3.75;;
43706;SDS011;61348;53.392;-6.248;2023-06-04T04:23:06;9.25;;;3.97;;
43706;SDS011;61348;53.392;-6.248;2023-06-04T04:25:34;6.82;;;3.55;;
43706;SDS011;61348;53.392;-6.248;2023-06-04T04:28:03;5.53;;;4.30;;
43706;SDS011;61348;53.392;-6.248;2023-06-04T04:30:35;7.65;;;3.80;;
43706;SDS011;61348;53.392;-6.248;2023-06-04T04:33:03;7.68;;;3.90;;
43706;SDS011;61348;53.392;-6.248;2023-06-04T04:35:31;5.82;;;3.83;;
43706;SDS011;61348;53.392;-6.248;2023-06-04T04:37:59;7.28;;;3.97;;
43706;SDS011;61348;53.392;-6.248;2023-06-04T04:40:25;8.95;;;3.10;;
43706;SDS011;61348;53.392;-6.248;2023-06-04T04:42:52;8.40;;;3.50;;
43706;SDS011;61348;53.392;-6.248;2023-06-04T04:45:19;7.22;;;4.10;;
43706;SDS011;61348;53.392;-6.248;2023-06-04T04:47:46;10.35;;;4.45;;
43706;SDS011;61348;53.392;-6.248;2023-06-04T04:50:14;7.45;;;3.80;;
43706;SDS011;61348;53.392;-6.248;2023-06-04T04:52:40;7.20;;;3.63;;
43706;SDS011;61348;53.392;-6.248;2023-06-04T04:55:07;7.50;;;3.45;;
43706;SDS011;61348;53.392;-6.248;2023-06-04T04:57:34;9.75;;;3.70;;
43706;SDS011;61348;53.392;-6.248;2023-06-04T05:00:02;10.52;;;4.20;;
43706;SDS011;61348;53.392;-6.248;2023-06-04T05:02:32;7.15;;;4.00;;
43706;SDS011;61348;53.392;-6.248;2023-06-04T05:04:59;6.85;;;4.45;;
43706;SDS011;61348;53.392;-6.248;2023-06-04T05:07:26;12.05;;;5.20;;
43706;SDS011;61348;53.392;-6.248;2023-06-04T05:09:52;6.93;;;4.22;;
43706;SDS011;61348;53.392;-6.248;2023-06-04T05:12:19;9.60;;;3.75;;
43706;SDS011;61348;53.392;-6.248;2023-06-04T05:14:46;9.02;;;4.40;;
43706;SDS011;61348;53.392;-6.248;2023-06-04T05:17:13;10.00;;;3.88;;
43706;SDS011;61348;53.392;-6.248;2023-06-04T05:19:43;10.75;;;3.58;;
43706;SDS011;61348;53.392;-6.248;2023-06-04T05:22:09;8.85;;;3.78;;
43706;SDS011;61348;53.392;-6.248;2023-06-04T05:24:36;8.52;;;4.07;;
43706;SDS011;61348;53.392;-6.248;2023-06-04T05:27:03;12.45;;;4.10;;
43706;SDS011;61348;53.392;-6.248;2023-06-04T05:29:30;12.82;;;4.63;;
43706;SDS011;61348;53.392;-6.248;2023-06-04T05:31:56;9.25;;;3.80;;
43706;SDS011;61348;53.392;-6.248;2023-06-04T05:34:23;8.25;;;3.80;;
43706;SDS011;61348;53.392;-6.248;2023-06-04T05:36:50;12.88;;;4.22;;
43706;SDS011;61348;53.392;-6.248;2023-06-04T05:39:18;9.85;;;4.28;;
43706;SDS011;61348;53.392;-6.248;2023-06-04T05:41:46;12.43;;;3.65;;
43706;SDS011;61348;53.392;-6.248;2023-06-04T05:44:13;6.03;;;4.38;;
43706;SDS011;61348;53.392;-6.248;2023-06-04T05:46:40;9.15;;;4.93;;
43706;SDS011;61348;53.392;-6.248;2023-06-04T05:49:07;7.63;;;3.75;;
43706;SDS011;61348;53.392;-6.248;2023-06-04T05:51:34;13.20;;;3.97;;
43706;SDS011;61348;53.392;-6.248;2023-06-04T05:54:02;8.90;;;3.58;;
43706;SDS011;61348;53.392;-6.248;2023-06-04T05:56:29;11.38;;;3.88;;
43706;SDS011;61348;53.392;-6.248;2023-06-04T05:58:56;9.98;;;3.88;;
43706;SDS011;61348;53.392;-6.248;2023-06-04T06:01:23;11.25;;;3.83;;
43706;SDS011;61348;53.392;-6.248;2023-06-04T06:03:49;8.48;;;3.72;;
43706;SDS011;61348;53.392;-6.248;2023-06-04T06:06:17;8.18;;;3.35;;
43706;SDS011;61348;53.392;-6.248;2023-06-04T06:08:44;12.90;;;3.97;;
43706;SDS011;61348;53.392;-6.248;2023-06-04T06:11:12;5.75;;;3.60;;
43706;SDS011;61348;53.392;-6.248;2023-06-04T06:13:39;6.45;;;3.60;;
43706;SDS011;61348;53.392;-6.248;2023-06-04T06:16:06;11.93;;;4.57;;
43706;SDS011;61348;53.392;-6.248;2023-06-04T06:18:33;9.35;;;3.58;;
43706;SDS011;61348;53.392;-6.248;2023-06-04T06:20:59;6.85;;;2.95;;
43706;SDS011;61348;53.392;-6.248;2023-06-04T06:23:26;8.65;;;4.00;;
43706;SDS011;61348;53.392;-6.248;2023-06-04T06:25:53;10.70;;;3.70;;
43706;SDS011;61348;53.392;-6.248;2023-06-04T06:28:20;6.68;;;4.22;;
43706;SDS011;61348;53.392;-6.248;2023-06-04T06:30:46;6.70;;;4.10;;
43706;SDS011;61348;53.392;-6.248;2023-06-04T06:33:14;9.48;;;4.78;;
43706;SDS011;61348;53.392;-6.248;2023-06-04T06:35:41;6.53;;;3.88;;
43706;SDS011;61348;53.392;-6.248;2023-06-04T06:38:08;5.78;;;3.10;;
43706;SDS011;61348;53.392;-6.248;2023-06-04T06:40:34;6.75;;;4.18;;
43706;SDS011;61348;53.392;-6.248;2023-06-04T06:43:01;6.40;;;3.28;;
43706;SDS011;61348;53.392;-6.248;2023-06-04T06:45:29;4.05;;;3.17;;
43706;SDS011;61348;53.392;-6.248;2023-06-04T06:47:58;7.05;;;3.08;;
43706;SDS011;61348;53.392;-6.248;2023-06-04T06:50:25;4.97;;;3.53;;
43706;SDS011;61348;53.392;-6.248;2023-06-04T06:52:51;9.55;;;3.63;;
43706;SDS011;61348;53.392;-6.248;2023-06-04T06:55:18;7.57;;;3.95;;
43706;SDS011;61348;53.392;-6.248;2023-06-04T06:57:45;11.00;;;3.08;;
43706;SDS011;61348;53.392;-6.248;2023-06-04T07:00:12;11.60;;;3.47;;
43706;SDS011;61348;53.392;-6.248;2023-06-04T07:02:39;7.47;;;3.70;;
43706;SDS011;61348;53.392;-6.248;2023-06-04T07:05:07;14.27;;;3.55;;
43706;SDS011;61348;53.392;-6.248;2023-06-04T07:07:33;7.55;;;3.88;;
43706;SDS011;61348;53.392;-6.248;2023-06-04T07:10:00;6.50;;;3.00;;
43706;SDS011;61348;53.392;-6.248;2023-06-04T07:12:27;8.00;;;2.90;;
43706;SDS011;61348;53.392;-6.248;2023-06-04T07:14:53;6.78;;;3.40;;
43706;SDS011;61348;53.392;-6.248;2023-06-04T07:17:20;9.45;;;2.90;;
43706;SDS011;61348;53.392;-6.248;2023-06-04T07:19:47;9.75;;;3.20;;
43706;SDS011;61348;53.392;-6.248;2023-06-04T07:22:14;8.70;;;3.00;;
43706;SDS011;61348;53.392;-6.248;2023-06-04T07:24:43;12.38;;;3.15;;
43706;SDS011;61348;53.392;-6.248;2023-06-04T07:27:11;8.32;;;3.83;;
43706;SDS011;61348;53.392;-6.248;2023-06-04T07:29:38;8.30;;;2.38;;
43706;SDS011;61348;53.392;-6.248;2023-06-04T07:32:05;9.50;;;3.10;;
43706;SDS011;61348;53.392;-6.248;2023-06-04T07:34:33;7.25;;;3.17;;
43706;SDS011;61348;53.392;-6.248;2023-06-04T07:37:00;6.68;;;3.25;;
43706;SDS011;61348;53.392;-6.248;2023-06-04T07:39:27;9.68;;;2.83;;
43706;SDS011;61348;53.392;-6.248;2023-06-04T07:41:54;5.75;;;2.22;;
43706;SDS011;61348;53.392;-6.248;2023-06-04T07:44:20;6.05;;;2.63;;
43706;SDS011;61348;53.392;-6.248;2023-06-04T07:46:47;6.25;;;2.47;;
43706;SDS011;61348;53.392;-6.248;2023-06-04T07:49:15;9.88;;;2.78;;
43706;SDS011;61348;53.392;-6.248;2023-06-04T07:51:41;3.60;;;2.33;;
43706;SDS011;61348;53.392;-6.248;2023-06-04T07:54:08;8.57;;;3.15;;
43706;SDS011;61348;53.392;-6.248;2023-06-04T07:56:35;8.68;;;2.45;;
43706;SDS011;61348;53.392;-6.248;2023-06-04T07:59:02;6.97;;;2.58;;
43706;SDS011;61348;53.392;-6.248;2023-06-04T08:01:28;6.45;;;2.10;;
43706;SDS011;61348;53.392;-6.248;2023-06-04T08:03:55;6.88;;;2.33;;
43706;SDS011;61348;53.392;-6.248;2023-06-04T08:06:23;5.18;;;2.47;;
43706;SDS011;61348;53.392;-6.248;2023-06-04T08:08:50;6.88;;;2.08;;
43706;SDS011;61348;53.392;-6.248;2023-06-04T08:11:17;4.97;;;2.08;;
43706;SDS011;61348;53.392;-6.248;2023-06-04T08:13:44;7.50;;;2.10;;
43706;SDS011;61348;53.392;-6.248;2023-06-04T08:16:10;7.05;;;2.47;;
43706;SDS011;61348;53.392;-6.248;2023-06-04T08:18:38;4.13;;;1.65;;
43706;SDS011;61348;53.392;-6.248;2023-06-04T08:21:08;3.83;;;1.65;;
43706;SDS011;61348;53.392;-6.248;2023-06-04T08:23:37;8.63;;;2.40;;
43706;SDS011;61348;53.392;-6.248;2023-06-04T08:26:04;8.10;;;2.35;;
43706;SDS011;61348;53.392;-6.248;2023-06-04T08:28:34;2.75;;;1.90;;
43706;SDS011;61348;53.392;-6.248;2023-06-04T08:31:00;8.50;;;1.85;;
43706;SDS011;61348;53.392;-6.248;2023-06-04T08:33:27;2.58;;;1.63;;
43706;SDS011;61348;53.392;-6.248;2023-06-04T08:35:54;7.60;;;2.20;;
43706;SDS011;61348;53.392;-6.248;2023-06-04T08:38:21;4.75;;;1.92;;
43706;SDS011;61348;53.392;-6.248;2023-06-04T08:40:49;8.90;;;2.40;;
43706;SDS011;61348;53.392;-6.248;2023-06-04T08:43:19;10.55;;;2.20;;
43706;SDS011;61348;53.392;-6.248;2023-06-04T08:45:48;10.35;;;2.53;;
43706;SDS011;61348;53.392;-6.248;2023-06-04T08:48:16;4.97;;;1.88;;
43706;SDS011;61348;53.392;-6.248;2023-06-04T08:50:45;8.25;;;2.00;;
43706;SDS011;61348;53.392;-6.248;2023-06-04T08:53:14;10.10;;;2.65;;
43706;SDS011;61348;53.392;-6.248;2023-06-04T08:55:42;8.02;;;2.10;;
43706;SDS011;61348;53.392;-6.248;2023-06-04T08:58:09;7.40;;;2.92;;
43706;SDS011;61348;53.392;-6.248;2023-06-04T09:00:39;11.70;;;2.40;;
43706;SDS011;61348;53.392;-6.248;2023-06-04T09:03:06;5.13;;;1.73;;
43706;SDS011;61348;53.392;-6.248;2023-06-04T09:05:33;6.30;;;2.50;;
43706;SDS011;61348;53.392;-6.248;2023-06-04T09:08:02;6.55;;;2.17;;
43706;SDS011;61348;53.392;-6.248;2023-06-04T09:10:32;4.13;;;1.90;;
43706;SDS011;61348;53.392;-6.248;2023-06-04T09:13:01;5.85;;;2.63;;
43706;SDS011;61348;53.392;-6.248;2023-06-04T09:15:29;5.32;;;1.88;;
43706;SDS011;61348;53.392;-6.248;2023-06-04T09:17:56;6.63;;;2.08;;
43706;SDS011;61348;53.392;-6.248;2023-06-04T09:20:23;7.63;;;2.33;;
43706;SDS011;61348;53.392;-6.248;2023-06-04T09:22:52;6.18;;;2.30;;
43706;SDS011;61348;53.392;-6.248;2023-06-04T09:25:20;4.68;;;1.63;;
43706;SDS011;61348;53.392;-6.248;2023-06-04T09:27:48;7.47;;;2.03;;
43706;SDS011;61348;53.392;-6.248;2023-06-04T09:30:15;7.97;;;1.90;;
43706;SDS011;61348;53.392;-6.248;2023-06-04T09:32:42;5.80;;;2.58;;
43706;SDS011;61348;53.392;-6.248;2023-06-04T09:35:10;5.65;;;1.90;;
43706;SDS011;61348;53.392;-6.248;2023-06-04T09:37:43;4.22;;;1.90;;
43706;SDS011;61348;53.392;-6.248;2023-06-04T09:40:18;5.00;;;1.45;;
43706;SDS011;61348;53.392;-6.248;2023-06-04T09:42:46;5.47;;;1.60;;
43706;SDS011;61348;53.392;-6.248;2023-06-04T09:45:30;3.05;;;1.95;;
43706;SDS011;61348;53.392;-6.248;2023-06-04T09:47:59;4.40;;;1.40;;
43706;SDS011;61348;53.392;-6.248;2023-06-04T09:50:27;3.35;;;1.98;;
43706;SDS011;61348;53.392;-6.248;2023-06-04T09:52:56;2.90;;;1.27;;
43706;SDS011;61348;53.392;-6.248;2023-06-04T09:55:23;3.22;;;1.33;;
43706;SDS011;61348;53.392;-6.248;2023-06-04T09:57:50;6.13;;;1.73;;
43706;SDS011;61348;53.392;-6.248;2023-06-04T10:00:19;4.55;;;1.85;;
43706;SDS011;61348;53.392;-6.248;2023-06-04T10:02:47;1.77;;;1.40;;
43706;SDS011;61348;53.392;-6.248;2023-06-04T10:05:16;5.25;;;2.00;;
43706;SDS011;61348;53.392;-6.248;2023-06-04T10:07:46;4.47;;;1.88;;
43706;SDS011;61348;53.392;-6.248;2023-06-04T10:10:18;3.38;;;1.33;;
43706;SDS011;61348;53.392;-6.248;2023-06-04T10:12:50;6.53;;;1.80;;
43706;SDS011;61348;53.392;-6.248;2023-06-04T10:15:25;5.60;;;1.38;;
43706;SDS011;61348;53.392;-6.248;2023-06-04T10:17:53;5.05;;;2.08;;
43706;SDS011;61348;53.392;-6.248;2023-06-04T10:20:22;3.10;;;1.42;;
43706;SDS011;61348;53.392;-6.248;2023-06-04T10:22:49;4.50;;;1.40;;
43706;SDS011;61348;53.392;-6.248;2023-06-04T10:25:16;2.65;;;1.30;;
43706;SDS011;61348;53.392;-6.248;2023-06-04T10:27:44;2.33;;;1.30;;
43706;SDS011;61348;53.392;-6.248;2023-06-04T10:30:13;2.60;;;1.30;;
43706;SDS011;61348;53.392;-6.248;2023-06-04T10:32:40;2.42;;;1.42;;
43706;SDS011;61348;53.392;-6.248;2023-06-04T10:35:07;6.10;;;2.50;;
43706;SDS011;61348;53.392;-6.248;2023-06-04T10:37:34;6.15;;;1.88;;
43706;SDS011;61348;53.392;-6.248;2023-06-04T10:40:02;4.53;;;2.30;;
43706;SDS011;61348;53.392;-6.248;2023-06-04T10:42:38;4.65;;;1.38;;
43706;SDS011;61348;53.392;-6.248;2023-06-04T10:45:07;3.47;;;1.45;;
43706;SDS011;61348;53.392;-6.248;2023-06-04T10:47:36;2.40;;;1.65;;
43706;SDS011;61348;53.392;-6.248;2023-06-04T10:50:11;4.25;;;1.40;;
43706;SDS011;61348;53.392;-6.248;2023-06-04T10:52:52;4.05;;;1.83;;
43706;SDS011;61348;53.392;-6.248;2023-06-04T10:55:24;7.00;;;1.73;;
43706;SDS011;61348;53.392;-6.248;2023-06-04T10:57:55;4.13;;;1.40;;
43706;SDS011;61348;53.392;-6.248;2023-06-04T11:00:40;2.53;;;1.33;;
43706;SDS011;61348;53.392;-6.248;2023-06-04T11:03:11;6.40;;;1.77;;
43706;SDS011;61348;53.392;-6.248;2023-06-04T11:05:39;2.15;;;1.13;;
43706;SDS011;61348;53.392;-6.248;2023-06-04T11:08:08;3.05;;;1.42;;
43706;SDS011;61348;53.392;-6.248;2023-06-04T11:10:37;1.58;;;1.00;;
43706;SDS011;61348;53.392;-6.248;2023-06-04T11:13:05;1.83;;;0.93;;
43706;SDS011;61348;53.392;-6.248;2023-06-04T11:15:43;4.60;;;1.10;;
43706;SDS011;61348;53.392;-6.248;2023-06-04T11:18:20;3.58;;;1.55;;
43706;SDS011;61348;53.392;-6.248;2023-06-04T11:20:48;4.32;;;1.20;;
43706;SDS011;61348;53.392;-6.248;2023-06-04T11:23:16;6.57;;;1.45;;
43706;SDS011;61348;53.392;-6.248;2023-06-04T11:25:44;5.35;;;1.75;;
43706;SDS011;61348;53.392;-6.248;2023-06-04T11:28:18;1.90;;;1.08;;
43706;SDS011;61348;53.392;-6.248;2023-06-04T11:31:01;1.10;;;1.00;;
43706;SDS011;61348;53.392;-6.248;2023-06-04T11:33:29;1.23;;;0.88;;
43706;SDS011;61348;53.392;-6.248;2023-06-04T11:35:57;3.08;;;1.02;;
43706;SDS011;61348;53.392;-6.248;2023-06-04T11:38:23;8.65;;;1.70;;
43706;SDS011;61348;53.392;-6.248;2023-06-04T11:40:54;4.13;;;1.90;;
43706;SDS011;61348;53.392;-6.248;2023-06-04T11:43:23;2.85;;;1.25;;
43706;SDS011;61348;53.392;-6.248;2023-06-04T11:45:51;1.92;;;1.63;;
43706;SDS011;61348;53.392;-6.248;2023-06-04T11:48:18;2.90;;;1.45;;
43706;SDS011;61348;53.392;-6.248;2023-06-04T11:50:45;3.50;;;1.45;;
43706;SDS011;61348;53.392;-6.248;2023-06-04T11:53:12;3.60;;;1.40;;
43706;SDS011;61348;53.392;-6.248;2023-06-04T11:55:39;4.72;;;1.42;;
43706;SDS011;61348;53.392;-6.248;2023-06-04T11:58:06;4.32;;;1.40;;
43706;SDS011;61348;53.392;-6.248;2023-06-04T12:00:34;2.63;;;1.60;;
43706;SDS011;61348;53.392;-6.248;2023-06-04T12:03:02;4.40;;;1.42;;
43706;SDS011;61348;53.392;-6.248;2023-06-04T12:05:29;4.97;;;1.67;;
43706;SDS011;61348;53.392;-6.248;2023-06-04T12:08:10;4.10;;;1.50;;
43706;SDS011;61348;53.392;-6.248;2023-06-04T12:10:37;3.85;;;1.60;;
43706;SDS011;61348;53.392;-6.248;2023-06-04T12:13:05;4.90;;;1.80;;
43706;SDS011;61348;53.392;-6.248;2023-06-04T12:15:32;4.25;;;1.92;;
43706;SDS011;61348;53.392;-6.248;2023-06-04T12:17:59;4.38;;;1.50;;
43706;SDS011;61348;53.392;-6.248;2023-06-04T12:20:33;4.70;;;1.58;;
43706;SDS011;61348;53.392;-6.248;2023-06-04T12:23:02;5.65;;;1.73;;
43706;SDS011;61348;53.392;-6.248;2023-06-04T12:25:29;4.78;;;1.63;;
43706;SDS011;61348;53.392;-6.248;2023-06-04T12:27:57;3.65;;;1.65;;
43706;SDS011;61348;53.392;-6.248;2023-06-04T12:30:34;3.88;;;1.63;;
43706;SDS011;61348;53.392;-6.248;2023-06-04T12:33:02;3.38;;;1.63;;
43706;SDS011;61348;53.392;-6.248;2023-06-04T12:35:29;3.63;;;2.03;;
43706;SDS011;61348;53.392;-6.248;2023-06-04T12:37:55;4.35;;;1.80;;
43706;SDS011;61348;53.392;-6.248;2023-06-04T12:40:22;6.22;;;1.90;;
43706;SDS011;61348;53.392;-6.248;2023-06-04T12:42:50;3.90;;;1.55;;
43706;SDS011;61348;53.392;-6.248;2023-06-04T12:45:17;3.67;;;1.90;;
43706;SDS011;61348;53.392;-6.248;2023-06-04T12:47:44;3.63;;;2.05;;
43706;SDS011;61348;53.392;-6.248;2023-06-04T12:50:11;3.47;;;1.80;;
43706;SDS011;61348;53.392;-6.248;2023-06-04T12:52:38;5.38;;;1.80;;
43706;SDS011;61348;53.392;-6.248;2023-06-04T12:55:05;4.50;;;2.03;;
43706;SDS011;61348;53.392;-6.248;2023-06-04T12:57:32;6.90;;;2.00;;
43706;SDS011;61348;53.392;-6.248;2023-06-04T12:59:59;3.17;;;1.85;;
43706;SDS011;61348;53.392;-6.248;2023-06-04T13:02:25;3.03;;;1.75;;
43706;SDS011;61348;53.392;-6.248;2023-06-04T13:04:52;4.82;;;2.20;;
43706;SDS011;61348;53.392;-6.248;2023-06-04T13:07:22;3.28;;;1.63;;
43706;SDS011;61348;53.392;-6.248;2023-06-04T13:09:52;3.13;;;2.00;;
43706;SDS011;61348;53.392;-6.248;2023-06-04T13:12:19;4.45;;;1.95;;
43706;SDS011;61348;53.392;-6.248;2023-06-04T13:14:45;3.10;;;1.80;;
43706;SDS011;61348;53.392;-6.248;2023-06-04T13:17:12;2.88;;;1.77;;
43706;SDS011;61348;53.392;-6.248;2023-06-04T13:19:46;2.72;;;1.50;;
43706;SDS011;61348;53.392;-6.248;2023-06-04T13:22:13;2.60;;;1.70;;
43706;SDS011;61348;53.392;-6.248;2023-06-04T13:24:40;3.50;;;1.52;;
43706;SDS011;61348;53.392;-6.248;2023-06-04T13:27:06;6.07;;;1.73;;
43706;SDS011;61348;53.392;-6.248;2023-06-04T13:29:33;4.20;;;1.65;;
43706;SDS011;61348;53.392;-6.248;2023-06-04T13:32:01;2.25;;;1.50;;
43706;SDS011;61348;53.392;-6.248;2023-06-04T13:34:28;5.07;;;1.50;;
43706;SDS011;61348;53.392;-6.248;2023-06-04T13:36:54;3.17;;;1.48;;
43706;SDS011;61348;53.392;-6.248;2023-06-04T13:39:21;1.50;;;1.40;;
43706;SDS011;61348;53.392;-6.248;2023-06-04T13:41:49;3.38;;;1.85;;
43706;SDS011;61348;53.392;-6.248;2023-06-04T13:44:15;3.13;;;1.92;;
43706;SDS011;61348;53.392;-6.248;2023-06-04T13:46:42;4.28;;;1.60;;
43706;SDS011;61348;53.392;-6.248;2023-06-04T13:49:09;4.15;;;1.88;;
43706;SDS011;61348;53.392;-6.248;2023-06-04T13:51:36;6.70;;;2.38;;
43706;SDS011;61348;53.392;-6.248;2023-06-04T13:54:02;4.90;;;1.77;;
43706;SDS011;61348;53.392;-6.248;2023-06-04T13:56:29;3.90;;;1.92;;
43706;SDS011;61348;53.392;-6.248;2023-06-04T13:58:56;4.90;;;2.80;;
43706;SDS011;61348;53.392;-6.248;2023-06-04T14:01:23;3.17;;;1.70;;
43706;SDS011;61348;53.392;-6.248;2023-06-04T14:03:50;6.55;;;2.40;;
43706;SDS011;61348;53.392;-6.248;2023-06-04T14:06:18;4.88;;;1.92;;
43706;SDS011;61348;53.392;-6.248;2023-06-04T14:08:45;3.78;;;1.80;;
43706;SDS011;61348;53.392;-6.248;2023-06-04T14:11:12;4.65;;;1.38;;
43706;SDS011;61348;53.392;-6.248;2023-06-04T14:13:39;4.35;;;1.85;;
43706;SDS011;61348;53.392;-6.248;2023-06-04T14:16:07;3.85;;;1.80;;
43706;SDS011;61348;53.392;-6.248;2023-06-04T14:18:34;3.55;;;2.38;;
43706;SDS011;61348;53.392;-6.248;2023-06-04T14:21:01;3.00;;;1.95;;
43706;SDS011;61348;53.392;-6.248;2023-06-04T14:23:29;2.35;;;1.60;;
43706;SDS011;61348;53.392;-6.248;2023-06-04T14:25:56;6.07;;;2.15;;
43706;SDS011;61348;53.392;-6.248;2023-06-04T14:28:22;2.45;;;1.90;;
43706;SDS011;61348;53.392;-6.248;2023-06-04T14:30:49;5.72;;;1.63;;
43706;SDS011;61348;53.392;-6.248;2023-06-04T14:33:16;9.15;;;3.50;;
43706;SDS011;61348;53.392;-6.248;2023-06-04T14:35:43;6.45;;;2.15;;
43706;SDS011;61348;53.392;-6.248;2023-06-04T14:38:13;2.92;;;1.73;;
43706;SDS011;61348;53.392;-6.248;2023-06-04T14:40:42;3.47;;;1.70;;
43706;SDS011;61348;53.392;-6.248;2023-06-04T14:43:10;7.38;;;3.17;;
43706;SDS011;61348;53.392;-6.248;2023-06-04T14:45:37;5.13;;;1.98;;